Main page
METAR-TAF:

METAR-TAF

Airports :

Ushuaia, Argentina

Ushuaia – Malvinas Argentinas International Airport

latitude: 54-48S, longitude: 068-19W, elevation: 16 m

Current weather observation

The report was made 1 hour and 4 minutes ago, at 13:00 UTC
Calm wind
Temperature 7°C
Humidity 57%
Pressure 1010 hPa
Visibility 10 km or more
Few clouds at a height of 5000 ft
Scattered clouds at a height of 10000 ft

METAR: SAWH 211300Z 00000KT 9999 FEW050 SCT100 07/M01 Q1010

Time: 11:04 (14:04 UTC)

Forecast

The report was made 3 hours and 4 minutes ago, at 11:00 UTC
Forecast valid from 21 at 12 UTC to 22 at 12 UTC
Wind 15 kt from the Northwest
Visibility 10 km or more
Scattered clouds at a height of 2500 ft
Broken clouds at a height of 7000 ft
Probability 30%
from 22 at 01 UTC to 22 at 07 UTC
Wind 25 kt from the North/Northwest with gusts up to 35 kt

TAF: SAWH 211100Z 2112/2212 32015KT 9999 SCT025 BKN070 TX11/2118Z TN02/2112Z PROB30 2201/2207 34025G35KT

Weather observations and forecasts of more than 4000 airports (METAR and TAF reports).

The available stations are represented by yellow and red dots on the map.

Hover mouse over dot to see the name of the station.

Then click to see weather observations and forecasts.

To change the map : click on the green buttons with a black cross to zoom in, on the green button with a dash to zoom out, or on the green arrows for adjacent maps.


METAR-TAF: